GMMN/CMN METAR and TAF weather

Enter ICAO airport designator
Station Type Date Time Source
GMMN METAR 2021/05/16 00:00 UTC NOAA

GMMN 160000Z 04005KT CAVOK 18/12 Q1016 NOSIG


Station Type Date Time Source
GMMN Decoded METAR 2021/05/16 00:00 UTC NOAA

Nouasseur, Morocco (GMMN) 33-22N 007-35W 206M
May 15, 2021 - 08:00 PM EDT / 2021.05.16 0000 UTC
Wind: from the NE (040 degrees) at 6 MPH (5 KT):0
Visibility: greater than 7 mile(s):0
Temperature: 64 F (18 C)
Dew Point: 53 F (12 C)
Relative Humidity: 67%
Pressure (altimeter): 30.00 in. Hg (1016 hPa)
ob: GMMN 160000Z 04005KT CAVOK 18/12 Q1016 NOSIG
cycle: 0

Station Type Date Time Source
GMMN TAF 2021/05/15 18:42 UTC NOAA

TAF TAF GMMN 151700Z 1518/1624 02016KT CAVOK
BECMG 1520/1523 05008KT 9999 SCT020
BECMG 1606/1610 36016KT CAVOK

Example: see airport list